Time;durP1;ratioP1;P1;durP2;ratioP2;P2;SDS_P1;SDS_P2;PMS_P1;PMS_P2;Temp;Humidity;BMP_temperature;BMP_pressure;BME280_temperature;BME280_humidity;BME280_pressure;Samples;Min_cycle;Max_cycle;Signal;HPM_P1;HPM_P2
2022/05/16 00:01:46;;;;;;;3.72;1.92;;;14.80;99.90;;;;;;6258948;22;20407;-87
2022/05/16 00:04:39;;;;;;;1.63;1.50;;;14.80;99.90;;;;;;6257537;22;20176;-87
2022/05/16 00:07:27;;;;;;;;;;;14.80;99.90;;;;;;6286444;22;20394;-87
2022/05/16 00:10:14;;;;;;;3.40;2.08;;;14.80;99.90;;;;;;6263299;22;20214;-89
2022/05/16 00:13:02;;;;;;;3.58;2.17;;;14.70;99.90;;;;;;6261636;22;20050;-89
2022/05/16 00:15:50;;;;;;;4.25;2.10;;;14.60;99.90;;;;;;6260439;22;20020;-89
2022/05/16 00:18:37;;;;;;;3.72;1.95;;;14.50;99.90;;;;;;6282693;22;20110;-89
2022/05/16 00:21:26;;;;;;;4.78;2.13;;;14.50;99.90;;;;;;6282702;22;20023;-89
2022/05/16 00:24:14;;;;;;;2.25;1.85;;;14.50;99.90;;;;;;6280320;22;20031;-89
2022/05/16 00:27:02;;;;;;;3.30;2.20;;;14.40;99.90;;;;;;6291350;22;20038;-87
2022/05/16 00:29:52;;;;;;;3.90;1.85;;;14.50;99.90;;;;;;6278073;22;20095;-88
2022/05/16 00:32:41;;;;;;;4.65;2.20;;;14.50;99.90;;;;;;6293902;22;20034;-88
2022/05/16 00:35:28;;;;;;;6.53;2.33;;;14.50;99.90;;;;;;6290648;22;20089;-84
2022/05/16 00:38:15;;;;;;;2.10;1.92;;;14.30;99.90;;;;;;6287938;22;20019;-89
2022/05/16 00:41:04;;;;;;;3.67;1.95;;;14.20;99.90;;;;;;6292520;22;20074;-87
2022/05/16 00:43:58;;;;;;;4.45;2.40;;;14.20;99.90;;;;;;6291015;22;20027;-88
2022/05/16 00:46:48;;;;;;;4.10;2.35;;;14.20;99.90;;;;;;6281466;22;20027;-85
2022/05/16 00:49:41;;;;;;;5.03;2.13;;;14.20;99.90;;;;;;6279907;22;20322;-89
2022/05/16 00:52:35;;;;;;;3.83;1.98;;;14.20;99.90;;;;;;6258942;22;20118;-89
2022/05/16 00:55:42;;;;;;;9.20;3.20;;;14.10;99.90;;;;;;6258384;22;20059;-88
2022/05/16 00:58:34;;;;;;;4.18;2.47;;;14.10;99.90;;;;;;6279132;22;20089;-89
2022/05/16 01:07:40;;;;;;;4.63;2.53;;;14.10;99.90;;;;;;6283546;22;20028;-90
2022/05/16 01:10:28;;;;;;;6.78;2.30;;;14.00;99.90;;;;;;6241754;22;20082;-89
2022/05/16 01:13:16;;;;;;;4.63;2.28;;;13.90;99.90;;;;;;6279764;22;20460;-89
2022/05/16 01:16:03;;;;;;;3.70;2.42;;;13.80;99.90;;;;;;6279212;22;20031;-88
2022/05/16 01:18:53;;;;;;;4.35;2.13;;;13.80;99.90;;;;;;6279627;22;20081;-88
2022/05/16 01:21:41;;;;;;;4.45;2.20;;;13.70;99.90;;;;;;6281143;22;20085;-87
2022/05/16 01:24:31;;;;;;;2.63;2.42;;;13.70;99.90;;;;;;6258736;22;20123;-87
2022/05/16 01:27:22;;;;;;;2.72;2.03;;;13.60;99.90;;;;;;6281913;22;20026;-87
2022/05/16 01:30:10;;;;;;;5.82;2.63;;;13.60;99.90;;;;;;6257940;22;20406;-87
2022/05/16 01:33:00;;;;;;;6.93;2.40;;;13.50;99.90;;;;;;6280774;22;20023;-89
2022/05/16 01:35:50;;;;;;;3.95;2.70;;;13.50;99.90;;;;;;6281959;22;20099;-85
2022/05/16 01:38:38;;;;;;;5.65;2.58;;;13.40;99.90;;;;;;6279526;22;20024;-88
2022/05/16 01:41:26;;;;;;;4.82;2.50;;;13.40;99.90;;;;;;6281921;22;20024;-88
2022/05/16 01:44:13;;;;;;;6.00;2.60;;;13.40;99.90;;;;;;6260044;22;20085;-88
2022/05/16 01:47:00;;;;;;;3.03;2.22;;;13.40;99.90;;;;;;6280524;22;20050;-82
2022/05/16 01:49:47;;;;;;;5.40;3.05;;;13.40;99.90;;;;;;6277577;22;20027;-84
2022/05/16 01:52:34;;;;;;;2.90;2.20;;;13.30;99.90;;;;;;6255528;22;20038;-88
2022/05/16 01:55:22;;;;;;;6.30;2.60;;;13.30;99.90;;;;;;6261856;22;20042;-88
2022/05/16 01:58:13;;;;;;;5.78;2.97;;;13.20;99.90;;;;;;6284177;22;20019;-89
2022/05/16 02:01:00;;;;;;;3.90;2.80;;;13.20;99.90;;;;;;6285863;22;20072;-88
2022/05/16 02:03:50;;;;;;;5.30;3.15;;;13.10;99.90;;;;;;6268873;22;20080;-88
2022/05/16 02:06:38;;;;;;;5.97;3.17;;;13.00;99.90;;;;;;6269243;22;20050;-84
2022/05/16 02:09:25;;;;;;;4.43;3.00;;;13.00;99.90;;;;;;6293936;22;20369;-89
2022/05/16 02:12:12;;;;;;;5.65;2.58;;;12.90;99.90;;;;;;6296162;22;20028;-81
2022/05/16 02:15:00;;;;;;;5.22;2.45;;;13.00;99.90;;;;;;6297978;22;20011;-85
2022/05/16 02:17:48;;;;;;;5.55;2.75;;;13.00;99.90;;;;;;6290563;22;20037;-85
2022/05/16 02:27:17;;;;;;;3.40;2.40;;;13.20;99.90;;;;;;6289809;22;20028;-85
2022/05/16 02:30:06;;;;;;;4.18;2.40;;;14.10;99.90;;;;;;6286609;22;20395;-87
2022/05/16 02:32:53;;;;;;;2.88;1.90;;;14.60;99.90;;;;;;6287671;22;20028;-88
2022/05/16 02:35:41;;;;;;;8.27;2.58;;;14.80;99.90;;;;;;6278391;22;20054;-89
2022/05/16 02:38:28;;;;;;;4.03;2.10;;;14.80;99.90;;;;;;6278291;22;20211;-88
2022/05/16 02:41:20;;;;;;;5.90;2.47;;;14.70;99.90;;;;;;6290827;22;20046;-86
2022/05/16 02:44:07;;;;;;;7.18;2.40;;;14.60;99.90;;;;;;6288236;22;20027;-87
2022/05/16 02:46:55;;;;;;;3.40;2.25;;;14.50;99.90;;;;;;6291159;22;20037;-89
2022/05/16 02:49:42;;;;;;;3.22;2.42;;;14.40;99.90;;;;;;6295951;22;20023;-88
2022/05/16 02:52:29;;;;;;;5.70;2.70;;;14.30;99.90;;;;;;6278300;22;20023;-88
2022/05/16 02:55:21;;;;;;;7.78;2.53;;;14.30;99.90;;;;;;6280185;22;20082;-88
2022/05/16 02:58:09;;;;;;;9.80;2.75;;;14.30;99.90;;;;;;6275932;22;20028;-88
2022/05/16 03:00:56;;;;;;;3.53;2.25;;;14.30;99.90;;;;;;6274608;22;20019;-87
2022/05/16 03:03:46;;;;;;;3.22;2.42;;;14.30;99.90;;;;;;6274744;22;20028;-88
2022/05/16 03:06:34;;;;;;;4.85;2.20;;;14.30;99.90;;;;;;6256470;22;20058;-89
2022/05/16 03:09:26;;;;;;;4.28;2.58;;;14.40;99.90;;;;;;6278942;22;20042;-89
2022/05/16 03:12:14;;;;;;;8.85;2.53;;;14.40;99.90;;;;;;6289698;22;20024;-87
2022/05/16 03:15:02;;;;;;;2.67;2.30;;;14.30;99.90;;;;;;6294351;22;20015;-84
2022/05/16 03:17:49;;;;;;;3.50;2.40;;;14.30;99.90;;;;;;6293139;22;20034;-86
2022/05/16 03:20:38;;;;;;;5.38;2.35;;;14.30;99.90;;;;;;6259551;22;20032;-89
2022/05/16 03:23:26;;;;;;;4.70;2.63;;;14.40;99.90;;;;;;6274683;22;20042;-88
2022/05/16 03:26:13;;;;;;;7.40;2.88;;;14.40;99.90;;;;;;6277252;22;20277;-88
2022/05/16 03:29:01;;;;;;;3.80;2.08;;;14.50;99.90;;;;;;6276973;22;20024;-87
2022/05/16 03:31:48;;;;;;;3.17;2.63;;;14.40;99.90;;;;;;6278701;22;20105;-87
2022/05/16 03:34:35;;;;;;;4.47;2.60;;;14.40;99.90;;;;;;6275228;22;20451;-90
2022/05/16 03:37:23;;;;;;;8.90;2.88;;;14.50;99.90;;;;;;6255222;22;20024;-89
2022/05/16 03:43:16;;;;;;;5.65;2.45;;;14.60;99.90;;;;;;6281354;22;20019;-86
2022/05/16 03:46:05;;;;;;;6.22;2.85;;;14.60;99.90;;;;;;6278961;22;20020;-88
2022/05/16 03:48:52;;;;;;;3.78;2.95;;;14.50;99.90;;;;;;6255182;22;20322;-89
2022/05/16 03:51:40;;;;;;;3.85;2.58;;;14.50;99.90;;;;;;6278293;22;20023;-88
2022/05/16 03:54:37;;;;;;;6.22;2.80;;;14.50;99.90;;;;;;6280488;22;20023;-87
2022/05/16 03:57:25;;;;;;;5.38;2.55;;;14.50;99.90;;;;;;6280250;22;20024;-86
2022/05/16 04:00:15;;;;;;;5.28;3.15;;;14.50;99.90;;;;;;6291764;22;20024;-88
2022/05/16 04:03:05;;;;;;;4.07;2.88;;;14.60;99.90;;;;;;6292039;22;20024;-89
2022/05/16 04:05:52;;;;;;;6.25;3.63;;;14.50;99.90;;;;;;6271590;22;20028;-88
2022/05/16 04:08:43;;;;;;;6.07;3.10;;;14.40;99.90;;;;;;6271183;22;20027;-88
2022/05/16 04:11:31;;;;;;;6.38;3.70;;;14.40;99.90;;;;;;6279338;22;20024;-80
2022/05/16 04:14:20;;;;;;;10.00;3.80;;;14.30;99.90;;;;;;6281116;22;20042;-81
2022/05/16 04:17:09;;;;;;;8.13;4.15;;;14.30;99.90;;;;;;6299517;22;20030;-89
2022/05/16 04:19:57;;;;;;;7.85;4.78;;;14.50;99.90;;;;;;6298330;22;20051;-87
2022/05/16 04:22:44;;;;;;;11.13;4.07;;;14.70;99.90;;;;;;6299012;22;20011;-88
2022/05/16 04:25:32;;;;;;;9.07;4.10;;;15.00;99.90;;;;;;6276400;22;20053;-85
2022/05/16 04:28:24;;;;;;;3.30;3.00;;;15.30;99.90;;;;;;6292749;22;20039;-88
2022/05/16 04:31:13;;;;;;;4.20;3.13;;;15.60;99.90;;;;;;6260729;22;20085;-88
2022/05/16 04:34:06;;;;;;;7.13;2.92;;;15.80;99.90;;;;;;6287289;22;20115;-88
2022/05/16 04:37:03;;;;;;;4.85;3.03;;;16.00;99.90;;;;;;6288229;22;20032;-86
2022/05/16 04:40:17;;;;;;;6.85;3.20;;;16.20;99.90;;;;;;6194006;23;20100;-87
2022/05/16 04:43:39;;;;;;;5.65;3.10;;;16.30;99.90;;;;;;6183826;23;20182;-87
2022/05/16 04:46:46;;;;;;;6.80;3.63;;;16.40;99.90;;;;;;6112631;23;20442;-86
2022/05/16 04:50:23;;;;;;;6.68;3.55;;;16.40;99.90;;;;;;6094587;23;20022;-88
2022/05/16 04:57:28;;;;;;;6.60;3.28;;;16.70;99.90;;;;;;6098178;23;20027;-87
2022/05/16 05:00:27;;;;;;;4.47;3.28;;;16.80;99.90;;;;;;6167158;23;20037;-87
2022/05/16 05:16:17;;;;;;;5.80;3.17;;;16.00;99.90;;;;;;6216573;23;20020;-88
2022/05/16 05:19:10;;;;;;;4.97;3.05;;;15.90;99.90;;;;;;6218780;23;20028;-89
2022/05/16 05:21:58;;;;;;;7.75;3.13;;;15.90;99.90;;;;;;6217106;23;20090;-86
2022/05/16 05:24:45;;;;;;;6.78;2.95;;;16.00;99.90;;;;;;6216936;23;20028;-86
2022/05/16 05:27:32;;;;;;;5.07;2.80;;;16.10;99.90;;;;;;6216677;23;20036;-86
2022/05/16 05:30:24;;;;;;;6.53;3.63;;;16.20;99.90;;;;;;6218219;23;20088;-87
2022/05/16 05:33:12;;;;;;;8.13;3.55;;;16.30;99.90;;;;;;6184734;22;20019;-87
2022/05/16 05:36:00;;;;;;;6.57;3.35;;;16.40;99.90;;;;;;6278834;22;20024;-86
2022/05/16 05:38:51;;;;;;;4.65;3.70;;;16.50;99.90;;;;;;6279258;22;20023;-86
2022/05/16 05:41:40;;;;;;;3.80;2.70;;;16.60;99.90;;;;;;6255925;22;20020;-86
2022/05/16 05:44:29;;;;;;;8.32;3.20;;;16.70;99.90;;;;;;6278798;22;20027;-85
2022/05/16 05:47:17;;;;;;;6.65;4.00;;;16.70;99.90;;;;;;6275926;22;20023;-87
2022/05/16 05:50:28;;;;;;;5.78;4.88;;;16.60;99.90;;;;;;6268673;22;20027;-87
2022/05/16 05:53:41;;;;;;;5.97;3.40;;;16.50;99.90;;;;;;6256620;22;20104;-85
2022/05/16 05:56:46;;;;;;;5.22;3.80;;;16.60;99.90;;;;;;6255690;22;20027;-85
2022/05/16 05:59:39;;;;;;;6.40;3.42;;;16.70;99.90;;;;;;6293747;22;20028;-90
2022/05/16 06:06:25;;;;;;;6.82;3.38;;;17.20;99.90;;;;;;6117841;23;20048;-86
2022/05/16 06:23:21;;;;;;;7.53;3.95;;;17.70;99.90;;;;;;6280186;22;20084;-88
2022/05/16 06:26:12;;;;;;;7.32;3.60;;;17.80;99.90;;;;;;6260821;22;20306;-86
2022/05/16 06:29:15;;;;;;;4.53;3.00;;;17.80;99.90;;;;;;6283437;22;20024;-87
2022/05/16 06:32:11;;;;;;;5.45;2.83;;;17.90;99.90;;;;;;6281564;22;20027;-86
2022/05/16 06:34:59;;;;;;;8.30;3.05;;;18.30;99.90;;;;;;6281115;22;20024;-85
2022/05/16 06:37:52;;;;;;;4.82;3.10;;;18.70;99.90;;;;;;6284421;22;20040;-89
2022/05/16 06:40:46;;;;;;;6.35;3.10;;;19.10;99.90;;;;;;6281694;22;20062;-88
2022/05/16 06:43:46;;;;;;;5.13;3.20;;;19.50;99.90;;;;;;6259624;22;20068;-90
2022/05/16 06:47:17;;;;;;;;;;;;;;;;;;;;;
2022/05/16 06:51:25;;;;;;;7.60;2.88;;;20.10;99.90;;;;;;6282340;22;20022;-86
2022/05/16 06:54:57;;;;;;;4.20;2.88;;;20.40;99.90;;;;;;6170973;23;20122;-89
2022/05/16 06:58:37;;;;;;;3.83;2.67;;;20.90;99.90;;;;;;6160860;23;20026;-90
2022/05/16 07:02:16;;;;;;;;;;;;;;;;;;;;;
2022/05/16 07:10:17;;;;;;;4.50;3.25;;;21.90;96.10;;;;;;6069546;23;20132;-85
2022/05/16 07:30:43;;;;;;;7.90;4.00;;;21.00;96.50;;;;;;6099012;23;20014;-85
2022/05/16 07:46:04;;;;;;;9.80;3.92;;;21.10;95.90;;;;;;6144977;23;20035;-85
2022/05/16 07:49:33;;;;;;;8.93;3.80;;;21.00;97.00;;;;;;6122725;23;20018;-84
2022/05/16 07:57:05;;;;;;;7.03;4.20;;;20.50;99.70;;;;;;6122456;23;20018;-84
2022/05/16 08:00:06;;;;;;;5.40;4.32;;;20.00;99.90;;;;;;6124550;23;20040;-86
2022/05/16 08:40:54;;;;;;;6.13;4.00;;;22.00;99.90;;;;;;6124431;23;20013;-86
2022/05/16 08:44:28;;;;;;;10.70;4.38;;;22.20;99.90;;;;;;6125169;23;20017;-85
2022/05/16 08:55:35;;;;;;;7.68;4.10;;;22.70;99.70;;;;;;6290183;22;20028;-84
2022/05/16 08:59:00;;;;;;;5.05;3.65;;;23.40;95.80;;;;;;6264968;22;20045;-83
2022/05/16 09:02:09;;;;;;;10.98;3.72;;;23.90;91.60;;;;;;6282333;22;20015;-85
2022/05/16 09:09:31;;;;;;;8.90;3.83;;;26.40;74.90;;;;;;6268746;22;20157;-84
2022/05/16 09:12:36;;;;;;;7.20;3.42;;;27.00;71.00;;;;;;6298673;22;20119;-84
2022/05/16 09:15:40;;;;;;;9.15;3.28;;;26.20;69.10;;;;;;6282158;22;20015;-83
2022/05/16 09:19:05;;;;;;;8.95;4.18;;;25.30;70.20;;;;;;6261375;22;20034;-84
2022/05/16 09:22:09;;;;;;;8.25;3.63;;;24.50;73.40;;;;;;6250844;22;20054;-85
2022/05/16 09:25:13;;;;;;;8.10;3.70;;;24.30;76.10;;;;;;6278742;22;20038;-85
2022/05/16 09:31:25;;;;;;;8.45;3.42;;;24.20;76.90;;;;;;6277072;22;20024;-83
2022/05/16 09:34:19;;;;;;;8.55;4.10;;;24.00;75.00;;;;;;6279899;22;20039;-87
2022/05/16 09:37:09;;;;;;;9.30;3.92;;;23.70;76.50;;;;;;6273532;22;20088;-85
2022/05/16 09:40:00;;;;;;;10.85;3.78;;;23.60;76.40;;;;;;6272120;22;20103;-85
2022/05/16 09:42:50;;;;;;;7.40;3.65;;;23.50;76.50;;;;;;6273973;22;20020;-83
2022/05/16 09:45:49;;;;;;;8.20;3.28;;;23.80;76.30;;;;;;6274347;22;20414;-84
2022/05/16 09:48:36;;;;;;;8.35;3.72;;;24.80;72.30;;;;;;6251516;22;20086;-87
2022/05/16 09:51:24;;;;;;;8.77;3.28;;;25.80;69.70;;;;;;6278470;22;20089;-86
2022/05/16 09:54:18;;;;;;;9.07;3.25;;;26.10;66.40;;;;;;6255178;22;20112;-84
2022/05/16 09:57:21;;;;;;;7.05;3.13;;;26.60;62.90;;;;;;6276025;22;20023;-88
2022/05/16 10:00:40;;;;;;;10.18;3.63;;;27.40;60.90;;;;;;6273011;22;20023;-86
2022/05/16 10:03:41;;;;;;;6.75;3.33;;;28.10;57.90;;;;;;6274448;22;20145;-87
2022/05/16 10:06:33;;;;;;;9.55;3.30;;;28.00;58.10;;;;;;6255140;22;20035;-86
2022/05/16 10:09:31;;;;;;;4.65;2.95;;;28.30;60.40;;;;;;6255081;22;20042;-87
2022/05/16 10:12:21;;;;;;;6.13;3.30;;;28.60;55.00;;;;;;6278257;22;20045;-87
2022/05/16 10:15:11;;;;;;;8.75;3.05;;;28.60;55.00;;;;;;6277520;22;20020;-85
2022/05/16 10:18:05;;;;;;;4.53;3.00;;;27.90;55.40;;;;;;6257065;22;20031;-85
2022/05/16 10:21:03;;;;;;;7.13;3.40;;;27.00;58.60;;;;;;6254892;22;20020;-87
2022/05/16 10:23:52;;;;;;;7.93;3.42;;;26.30;59.80;;;;;;6275923;22;20024;-87
2022/05/16 10:26:44;;;;;;;6.82;3.28;;;26.80;59.60;;;;;;6277454;22;20034;-91
2022/05/16 10:29:40;;;;;;;14.10;3.60;;;26.90;58.00;;;;;;6287205;22;20077;-86
2022/05/16 10:36:21;;;;;;;6.00;2.95;;;26.40;59.80;;;;;;6278591;22;20031;-88
2022/05/16 10:39:17;;;;;;;10.20;3.08;;;25.60;62.00;;;;;;6253928;22;20024;-85
2022/05/16 10:42:14;;;;;;;10.25;3.28;;;24.80;63.70;;;;;;6276641;22;20023;-87
2022/05/16 10:45:19;;;;;;;8.65;2.92;;;24.10;66.20;;;;;;6252259;22;20356;-84
2022/05/16 10:48:53;;;;;;;7.88;2.80;;;23.50;69.10;;;;;;6276740;22;20085;-88
2022/05/16 10:51:42;;;;;;;7.82;2.85;;;23.00;69.40;;;;;;6268218;22;20019;-87
2022/05/16 10:54:35;;;;;;;7.78;2.95;;;22.60;70.90;;;;;;6275251;22;20284;-85
2022/05/16 10:57:22;;;;;;;6.00;2.78;;;22.40;73.00;;;;;;6276347;22;20127;-85
2022/05/16 11:00:19;;;;;;;7.20;2.35;;;22.30;74.40;;;;;;6276629;22;20031;-86
2022/05/16 11:03:17;;;;;;;7.07;2.70;;;22.20;77.00;;;;;;6280280;22;20314;-85
2022/05/16 11:06:22;;;;;;;6.90;2.58;;;21.90;77.00;;;;;;6258542;22;20023;-88
2022/05/16 11:09:18;;;;;;;9.38;2.92;;;21.20;77.50;;;;;;6275373;22;20032;-86
2022/05/16 11:12:06;;;;;;;3.42;1.80;;;20.90;80.50;;;;;;6255192;22;20035;-86
2022/05/16 11:15:18;;;;;;;4.18;2.05;;;20.80;82.00;;;;;;6279631;22;20024;-87
2022/05/16 11:18:32;;;;;;;9.68;2.28;;;20.50;83.00;;;;;;6288755;22;20104;-84
2022/05/16 11:21:35;;;;;;;6.40;2.20;;;20.30;82.50;;;;;;6272921;22;20106;-87
2022/05/16 11:24:43;;;;;;;5.47;2.63;;;20.00;82.40;;;;;;6280164;22;20295;-84
2022/05/16 11:27:57;;;;;;;6.15;1.70;;;19.80;83.20;;;;;;6275901;22;20030;-89
2022/05/16 11:30:59;;;;;;;4.32;1.58;;;19.50;80.90;;;;;;6278203;22;20034;-88
2022/05/16 11:33:53;;;;;;;3.70;1.55;;;19.20;84.10;;;;;;6252854;22;20035;-87
2022/05/16 11:37:14;;;;;;;7.10;1.75;;;19.10;86.50;;;;;;6276998;22;20096;-90
2022/05/16 11:40:12;;;;;;;9.00;2.78;;;18.90;90.70;;;;;;6274903;22;20030;-86
2022/05/16 11:43:12;;;;;;;8.00;2.58;;;18.20;99.90;;;;;;6277185;22;20020;-86
2022/05/16 11:46:23;;;;;;;6.90;3.00;;;17.60;99.90;;;;;;6276261;22;20027;-84
2022/05/16 11:49:15;;;;;;;13.10;3.40;;;17.10;99.90;;;;;;6272399;22;20119;-84
2022/05/16 11:52:36;;;;;;;8.68;3.65;;;16.70;99.90;;;;;;6274916;22;20123;-85
2022/05/16 12:01:45;;;;;;;8.95;3.60;;;16.30;99.90;;;;;;6260295;22;20360;-82
2022/05/16 12:04:41;;;;;;;9.27;3.88;;;16.30;99.90;;;;;;6276650;22;20028;-84
2022/05/16 12:07:46;;;;;;;7.80;3.60;;;16.30;99.90;;;;;;6275051;22;20038;-85
2022/05/16 12:10:33;;;;;;;5.78;3.35;;;16.20;99.90;;;;;;6279050;22;20399;-84
2022/05/16 12:13:33;;;;;;;11.13;3.63;;;16.30;99.90;;;;;;6277445;22;20023;-86
2022/05/16 12:16:28;;;;;;;15.55;5.75;;;16.40;99.90;;;;;;6277568;22;20027;-83
2022/05/16 12:19:34;;;;;;;14.65;5.30;;;16.50;99.90;;;;;;6279083;22;20030;-86
2022/05/16 12:22:43;;;;;;;11.35;4.30;;;16.40;99.90;;;;;;6257672;22;20102;-85
2022/05/16 12:25:33;;;;;;;10.43;4.32;;;16.30;99.90;;;;;;6257576;22;20035;-84
2022/05/16 12:28:29;;;;;;;12.60;4.45;;;16.30;99.90;;;;;;6278327;22;20031;-85
2022/05/16 12:31:33;;;;;;;10.85;4.18;;;16.40;99.90;;;;;;6280359;22;20027;-85
2022/05/16 12:34:29;;;;;;;7.88;3.70;;;16.60;99.90;;;;;;6256973;22;20098;-81
2022/05/16 12:37:21;;;;;;;6.47;3.17;;;17.10;99.90;;;;;;6288577;22;20020;-85
2022/05/16 12:40:48;;;;;;;9.73;3.47;;;17.90;99.90;;;;;;6294564;22;20134;-86
2022/05/16 12:44:02;;;;;;;7.03;2.80;;;18.70;99.90;;;;;;6282688;22;20058;-85
2022/05/16 12:47:19;;;;;;;;;;;19.20;99.90;;;;;;6281644;22;20034;-83
2022/05/16 12:50:24;;;;;;;6.43;2.72;;;19.50;99.90;;;;;;6272096;22;19925;-85
2022/05/16 12:53:38;;;;;;;6.45;3.00;;;19.30;99.90;;;;;;6278966;22;20414;-86
2022/05/16 12:56:38;;;;;;;7.18;2.97;;;19.10;99.90;;;;;;6254830;22;20094;-83
2022/05/16 12:59:56;;;;;;;7.20;3.13;;;18.80;99.90;;;;;;6275404;22;20043;-85
2022/05/16 13:02:48;;;;;;;9.32;4.57;;;18.90;99.90;;;;;;6274533;22;20204;-84
2022/05/16 13:05:45;;;;;;;8.63;3.95;;;18.90;99.90;;;;;;6277270;22;20626;-86
2022/05/16 13:09:03;;;;;;;11.40;4.40;;;19.00;99.90;;;;;;6274601;22;20051;-84
2022/05/16 13:12:15;;;;;;;13.73;4.80;;;18.90;99.90;;;;;;6252273;22;20110;-85
2022/05/16 13:15:10;;;;;;;10.55;5.10;;;18.90;99.90;;;;;;6255801;22;20135;-84
2022/05/16 13:17:58;;;;;;;6.38;4.13;;;18.90;99.90;;;;;;6275832;22;20422;-83
2022/05/16 13:20:48;;;;;;;10.98;5.13;;;19.00;99.90;;;;;;6277123;22;20024;-83
2022/05/16 13:23:39;;;;;;;10.20;4.57;;;19.00;99.90;;;;;;6275344;22;20020;-86
2022/05/16 13:29:35;;;;;;;13.68;5.85;;;19.40;99.90;;;;;;6275632;22;20023;-84
2022/05/16 13:32:31;;;;;;;9.88;4.60;;;19.80;99.90;;;;;;6279565;22;20035;-86
2022/05/16 13:35:40;;;;;;;13.63;4.85;;;20.20;99.90;;;;;;6257985;22;20050;-87
2022/05/16 13:38:37;;;;;;;9.02;3.83;;;20.70;99.90;;;;;;6279331;22;20020;-85
2022/05/16 13:41:29;;;;;;;7.15;3.42;;;21.70;99.90;;;;;;6279440;22;20120;-87
2022/05/16 13:44:16;;;;;;;7.18;3.83;;;22.80;99.90;;;;;;6279268;22;20111;-88
2022/05/16 13:47:10;;;;;;;11.15;3.80;;;23.20;99.90;;;;;;6258880;22;20035;-83
2022/05/16 13:49:59;;;;;;;9.02;3.55;;;23.30;99.90;;;;;;6283784;22;20043;-86
2022/05/16 13:52:48;;;;;;;6.63;3.63;;;23.90;99.90;;;;;;6278715;22;20031;-83
2022/05/16 13:55:46;;;;;;;5.32;3.10;;;23.60;99.90;;;;;;6279298;22;20288;-82
2022/05/16 13:58:34;;;;;;;5.82;2.80;;;23.60;99.90;;;;;;6283585;22;20095;-83
2022/05/16 14:01:22;;;;;;;4.47;2.97;;;24.10;99.90;;;;;;6289668;22;20023;-84
2022/05/16 14:04:15;;;;;;;7.07;2.97;;;24.90;98.90;;;;;;6272782;22;20411;-83
2022/05/16 14:07:15;;;;;;;7.03;3.42;;;24.90;97.40;;;;;;6286095;22;20085;-85
2022/05/16 14:10:15;;;;;;;6.15;2.75;;;25.50;95.40;;;;;;6277017;22;20054;-87
2022/05/16 14:13:10;;;;;;;8.90;3.17;;;26.70;92.80;;;;;;6277055;22;20030;-86
2022/05/16 14:16:06;;;;;;;6.63;2.90;;;26.80;90.30;;;;;;6252582;22;20051;-87
2022/05/16 14:19:14;;;;;;;7.93;2.50;;;26.70;90.30;;;;;;6287945;22;20295;-83
2022/05/16 14:22:10;;;;;;;6.88;2.50;;;27.10;84.50;;;;;;6261725;22;20020;-83
2022/05/16 14:25:02;;;;;;;7.47;2.55;;;27.70;82.90;;;;;;6283364;22;20027;-83
2022/05/16 14:28:16;;;;;;;4.95;2.20;;;28.10;75.60;;;;;;6265280;22;20034;-81
2022/05/16 14:31:38;;;;;;;6.30;2.70;;;26.50;79.50;;;;;;6271197;22;20109;-86
2022/05/16 14:34:43;;;;;;;5.20;2.33;;;26.10;82.40;;;;;;6286256;22;20147;-84
2022/05/16 14:37:31;;;;;;;5.95;2.55;;;26.70;80.80;;;;;;6293399;22;20031;-81
2022/05/16 14:40:23;;;;;;;5.32;2.08;;;26.60;78.60;;;;;;6287895;22;20034;-83
2022/05/16 14:43:26;;;;;;;5.35;2.20;;;26.10;77.50;;;;;;6281988;22;20085;-87
2022/05/16 14:49:45;;;;;;;6.32;2.60;;;26.20;76.90;;;;;;6182713;23;20104;-84
2022/05/16 14:52:35;;;;;;;3.85;2.20;;;26.30;76.70;;;;;;6162278;23;20036;-87
2022/05/16 14:55:38;;;;;;;4.38;1.48;;;25.60;75.40;;;;;;6269540;22;20486;-83
2022/05/16 14:58:27;;;;;;;3.42;1.58;;;25.20;76.00;;;;;;6278650;22;20075;-84
2022/05/16 15:04:22;;;;;;;6.70;1.90;;;25.70;74.60;;;;;;6277229;22;20034;-88
2022/05/16 15:07:13;;;;;;;4.35;1.60;;;26.30;73.10;;;;;;6261775;22;20030;-83
2022/05/16 15:10:03;;;;;;;4.90;1.50;;;26.90;67.30;;;;;;6287731;22;20027;-85
2022/05/16 15:13:02;;;;;;;2.72;1.27;;;26.80;69.80;;;;;;6281178;22;20425;-84
2022/05/16 15:15:53;;;;;;;3.92;1.45;;;26.40;67.40;;;;;;6280554;22;20095;-86
2022/05/16 15:18:43;;;;;;;3.90;1.40;;;25.70;65.40;;;;;;6281083;22;20024;-89
2022/05/16 15:21:55;;;;;;;7.70;1.48;;;25.40;66.30;;;;;;6277190;22;20035;-87
2022/05/16 15:24:57;;;;;;;3.33;1.52;;;24.40;69.70;;;;;;6276670;22;20051;-86
2022/05/16 15:27:45;;;;;;;6.18;1.90;;;23.90;71.70;;;;;;6277304;22;20463;-88
2022/05/16 15:30:53;;;;;;;3.78;1.77;;;23.30;74.90;;;;;;6276043;22;20031;-85
2022/05/16 15:33:41;;;;;;;3.35;1.20;;;23.10;77.60;;;;;;6252735;22;20290;-86
2022/05/16 15:36:29;;;;;;;2.70;1.27;;;23.00;78.20;;;;;;6278164;22;20030;-89
2022/05/16 15:39:22;;;;;;;9.43;1.52;;;22.80;80.20;;;;;;6262671;22;20068;-87
2022/05/16 15:42:11;;;;;;;4.60;1.60;;;22.50;80.00;;;;;;6259220;22;20035;-84
2022/05/16 15:45:01;;;;;;;6.35;1.65;;;22.30;81.90;;;;;;6256173;22;20034;-84
2022/05/16 15:47:55;;;;;;;3.58;1.70;;;22.20;84.70;;;;;;6261960;22;20101;-85
2022/05/16 15:50:49;;;;;;;5.30;1.60;;;22.00;84.30;;;;;;6278140;22;20081;-86
2022/05/16 15:53:38;;;;;;;7.65;1.95;;;22.00;84.40;;;;;;6279383;22;20023;-88
2022/05/16 15:56:26;;;;;;;17.13;7.25;;;21.90;86.00;;;;;;6282202;22;20407;-86
2022/05/16 15:59:16;;;;;;;17.30;8.63;;;21.70;88.10;;;;;;6283471;22;20097;-86
2022/05/16 16:02:18;;;;;;;5.88;2.38;;;21.50;90.90;;;;;;6281854;22;20469;-84
2022/05/16 16:11:18;;;;;;;5.88;1.98;;;20.80;94.80;;;;;;6277728;22;20354;-88
2022/05/16 16:14:06;;;;;;;3.30;1.73;;;20.90;94.10;;;;;;6257326;22;20039;-88
2022/05/16 16:16:55;;;;;;;4.50;1.60;;;21.30;93.20;;;;;;6279368;22;20072;-86
2022/05/16 16:19:46;;;;;;;7.13;1.95;;;21.80;92.50;;;;;;6277851;22;20427;-87
2022/05/16 16:22:36;;;;;;;7.85;1.60;;;21.70;92.20;;;;;;6254939;22;20364;-85
2022/05/16 16:25:26;;;;;;;4.32;1.70;;;21.60;92.70;;;;;;6277368;22;20024;-85
2022/05/16 16:28:14;;;;;;;6.60;2.00;;;21.70;92.20;;;;;;6281102;22;20032;-88
2022/05/16 16:31:05;;;;;;;4.07;1.60;;;21.70;91.20;;;;;;6269328;22;20028;-88
2022/05/16 16:34:04;;;;;;;2.97;1.73;;;21.70;91.00;;;;;;6269758;22;20081;-86
2022/05/16 16:36:54;;;;;;;4.20;1.73;;;21.40;91.70;;;;;;6289198;22;20031;-89
2022/05/16 16:39:41;;;;;;;5.10;1.75;;;21.20;91.60;;;;;;6284890;22;20023;-87
2022/05/16 16:42:29;;;;;;;5.25;2.10;;;21.10;91.80;;;;;;6289450;22;20023;-86
2022/05/16 16:45:17;;;;;;;2.25;1.40;;;21.00;92.00;;;;;;6293529;22;20024;-87
2022/05/16 16:48:05;;;;;;;3.47;1.77;;;21.00;92.00;;;;;;6274243;22;20011;-83
2022/05/16 16:50:52;;;;;;;4.75;1.90;;;20.90;92.10;;;;;;6299172;22;20016;-83
2022/05/16 17:00:20;;;;;;;3.83;1.70;;;20.40;94.50;;;;;;6287076;22;20019;-88
2022/05/16 17:03:32;;;;;;;6.40;2.03;;;20.30;96.00;;;;;;6267691;22;20095;-85
2022/05/16 17:06:23;;;;;;;4.95;2.03;;;20.20;95.00;;;;;;6279819;22;20378;-89
2022/05/16 17:09:10;;;;;;;7.65;2.20;;;20.20;94.80;;;;;;6240453;22;20027;-87
2022/05/16 17:12:00;;;;;;;4.43;1.83;;;20.10;95.10;;;;;;6285121;22;20034;-86
2022/05/16 17:14:47;;;;;;;8.20;2.20;;;20.00;95.00;;;;;;6281046;22;20028;-89
2022/05/16 17:17:35;;;;;;;4.47;2.00;;;20.00;94.50;;;;;;6260172;22;20026;-87
2022/05/16 17:20:23;;;;;;;6.88;2.30;;;19.90;94.20;;;;;;6281790;22;20023;-88
2022/05/16 17:23:14;;;;;;;6.55;2.83;;;19.80;95.20;;;;;;6279190;22;20024;-87
2022/05/16 17:26:01;;;;;;;7.13;2.58;;;19.80;94.00;;;;;;6279854;22;20098;-87
2022/05/16 17:28:50;;;;;;;5.50;2.10;;;19.70;93.80;;;;;;6281557;22;20282;-84
2022/05/16 17:31:40;;;;;;;6.38;2.00;;;19.60;93.80;;;;;;6258597;22;20054;-87
2022/05/16 17:34:27;;;;;;;6.10;1.90;;;19.50;93.90;;;;;;6254569;22;20269;-88
2022/05/16 17:37:15;;;;;;;5.30;1.85;;;19.50;93.80;;;;;;6279468;22;20402;-88
2022/05/16 17:40:04;;;;;;;4.00;1.73;;;19.40;93.00;;;;;;6277335;22;20392;-88
2022/05/16 17:42:51;;;;;;;4.13;1.58;;;19.40;93.40;;;;;;6278789;22;20020;-88
2022/05/16 17:45:40;;;;;;;6.57;1.80;;;19.40;93.10;;;;;;6276928;22;20023;-84
2022/05/16 17:48:28;;;;;;;4.53;1.80;;;19.30;93.00;;;;;;6255760;22;20027;-87
2022/05/16 17:51:20;;;;;;;3.42;1.40;;;19.30;93.30;;;;;;6258666;22;20139;-89
2022/05/16 17:54:11;;;;;;;3.95;1.77;;;19.30;93.20;;;;;;6281471;22;20039;-90
2022/05/16 17:57:01;;;;;;;4.72;1.85;;;19.20;93.60;;;;;;6284703;22;20020;-91
2022/05/16 17:59:49;;;;;;;4.03;1.88;;;19.10;94.50;;;;;;6258770;22;20081;-86
2022/05/16 18:02:39;;;;;;;4.18;1.83;;;19.10;94.90;;;;;;6277949;22;20050;-84
2022/05/16 18:05:30;;;;;;;7.45;2.40;;;19.10;95.30;;;;;;6279678;22;20024;-85
2022/05/16 18:08:18;;;;;;;4.97;1.67;;;19.10;94.80;;;;;;6256945;22;20034;-84
2022/05/16 18:14:19;;;;;;;3.80;1.35;;;19.10;93.30;;;;;;6282158;22;20034;-87